sensor_id;sensor_type;location;lat;lon;timestamp;P1;durP1;ratioP1;P2;durP2;ratioP2
69363;SDS011;56526;55.406;86.130;2022-08-25T00:00:19;35.65;;;16.80;;
69363;SDS011;56526;55.406;86.130;2022-08-25T00:02:46;27.40;;;16.85;;
69363;SDS011;56526;55.406;86.130;2022-08-25T00:05:13;18.58;;;11.65;;
69363;SDS011;56526;55.406;86.130;2022-08-25T00:07:39;17.35;;;8.80;;
69363;SDS011;56526;55.406;86.130;2022-08-25T00:10:06;16.33;;;8.77;;
69363;SDS011;56526;55.406;86.130;2022-08-25T00:12:33;17.02;;;8.63;;
69363;SDS011;56526;55.406;86.130;2022-08-25T00:14:59;18.00;;;10.65;;
69363;SDS011;56526;55.406;86.130;2022-08-25T00:17:25;14.80;;;8.18;;
69363;SDS011;56526;55.406;86.130;2022-08-25T00:19:51;16.52;;;8.07;;
69363;SDS011;56526;55.406;86.130;2022-08-25T00:22:17;13.38;;;7.20;;
69363;SDS011;56526;55.406;86.130;2022-08-25T00:24:44;17.42;;;9.82;;
69363;SDS011;56526;55.406;86.130;2022-08-25T00:27:11;23.90;;;11.20;;
69363;SDS011;56526;55.406;86.130;2022-08-25T00:29:37;21.42;;;13.05;;
69363;SDS011;56526;55.406;86.130;2022-08-25T00:32:04;26.63;;;14.93;;
69363;SDS011;56526;55.406;86.130;2022-08-25T00:34:32;20.80;;;12.15;;
69363;SDS011;56526;55.406;86.130;2022-08-25T00:37:03;22.48;;;12.30;;
69363;SDS011;56526;55.406;86.130;2022-08-25T00:39:31;25.88;;;10.77;;
69363;SDS011;56526;55.406;86.130;2022-08-25T00:41:58;24.73;;;10.27;;
69363;SDS011;56526;55.406;86.130;2022-08-25T00:44:27;23.90;;;13.45;;
69363;SDS011;56526;55.406;86.130;2022-08-25T00:46:56;26.45;;;13.30;;
69363;SDS011;56526;55.406;86.130;2022-08-25T00:49:45;24.65;;;13.20;;
69363;SDS011;56526;55.406;86.130;2022-08-25T00:52:18;30.83;;;14.25;;
69363;SDS011;56526;55.406;86.130;2022-08-25T00:54:55;18.85;;;11.10;;
69363;SDS011;56526;55.406;86.130;2022-08-25T00:57:55;16.42;;;10.18;;
69363;SDS011;56526;55.406;86.130;2022-08-25T01:00:37;19.63;;;11.57;;
69363;SDS011;56526;55.406;86.130;2022-08-25T01:03:09;20.88;;;9.93;;
69363;SDS011;56526;55.406;86.130;2022-08-25T01:05:36;26.88;;;11.52;;
69363;SDS011;56526;55.406;86.130;2022-08-25T01:08:04;20.33;;;12.15;;
69363;SDS011;56526;55.406;86.130;2022-08-25T01:10:34;19.55;;;12.75;;
69363;SDS011;56526;55.406;86.130;2022-08-25T01:13:08;24.50;;;11.73;;
69363;SDS011;56526;55.406;86.130;2022-08-25T01:15:46;19.98;;;11.60;;
69363;SDS011;56526;55.406;86.130;2022-08-25T01:18:14;31.65;;;14.73;;
69363;SDS011;56526;55.406;86.130;2022-08-25T01:20:40;29.13;;;14.43;;
69363;SDS011;56526;55.406;86.130;2022-08-25T01:23:07;26.63;;;17.40;;
69363;SDS011;56526;55.406;86.130;2022-08-25T01:25:45;25.90;;;16.15;;
69363;SDS011;56526;55.406;86.130;2022-08-25T01:28:34;23.65;;;13.02;;
69363;SDS011;56526;55.406;86.130;2022-08-25T01:31:02;26.48;;;16.25;;
69363;SDS011;56526;55.406;86.130;2022-08-25T01:33:29;23.50;;;14.98;;
69363;SDS011;56526;55.406;86.130;2022-08-25T01:35:55;29.25;;;16.55;;
69363;SDS011;56526;55.406;86.130;2022-08-25T01:38:22;30.30;;;18.60;;
69363;SDS011;56526;55.406;86.130;2022-08-25T01:40:48;36.22;;;18.73;;
69363;SDS011;56526;55.406;86.130;2022-08-25T01:45:42;34.90;;;19.95;;
69363;SDS011;56526;55.406;86.130;2022-08-25T01:48:11;35.10;;;20.63;;
69363;SDS011;56526;55.406;86.130;2022-08-25T01:50:38;36.17;;;22.45;;
69363;SDS011;56526;55.406;86.130;2022-08-25T01:55:43;32.38;;;21.42;;
69363;SDS011;56526;55.406;86.130;2022-08-25T01:58:10;32.10;;;19.92;;
69363;SDS011;56526;55.406;86.130;2022-08-25T02:00:36;31.17;;;19.65;;
69363;SDS011;56526;55.406;86.130;2022-08-25T02:03:03;36.42;;;23.48;;
69363;SDS011;56526;55.406;86.130;2022-08-25T02:05:29;36.70;;;23.40;;
69363;SDS011;56526;55.406;86.130;2022-08-25T02:07:55;28.23;;;20.85;;
69363;SDS011;56526;55.406;86.130;2022-08-25T02:10:21;27.85;;;21.00;;
69363;SDS011;56526;55.406;86.130;2022-08-25T02:12:48;28.40;;;19.02;;
69363;SDS011;56526;55.406;86.130;2022-08-25T02:15:14;35.00;;;19.63;;
69363;SDS011;56526;55.406;86.130;2022-08-25T02:17:40;29.30;;;18.83;;
69363;SDS011;56526;55.406;86.130;2022-08-25T02:20:06;33.95;;;17.27;;
69363;SDS011;56526;55.406;86.130;2022-08-25T02:22:33;26.45;;;16.15;;
69363;SDS011;56526;55.406;86.130;2022-08-25T02:24:59;22.80;;;16.00;;
69363;SDS011;56526;55.406;86.130;2022-08-25T02:27:25;23.05;;;13.98;;
69363;SDS011;56526;55.406;86.130;2022-08-25T02:29:52;25.55;;;16.48;;
69363;SDS011;56526;55.406;86.130;2022-08-25T02:32:18;24.45;;;11.65;;
69363;SDS011;56526;55.406;86.130;2022-08-25T02:34:44;20.80;;;14.80;;
69363;SDS011;56526;55.406;86.130;2022-08-25T02:37:11;26.02;;;14.70;;
69363;SDS011;56526;55.406;86.130;2022-08-25T02:39:38;23.75;;;14.38;;
69363;SDS011;56526;55.406;86.130;2022-08-25T02:42:05;21.63;;;14.10;;
69363;SDS011;56526;55.406;86.130;2022-08-25T02:44:31;25.90;;;12.43;;
69363;SDS011;56526;55.406;86.130;2022-08-25T02:46:58;20.50;;;12.85;;
69363;SDS011;56526;55.406;86.130;2022-08-25T02:49:24;22.33;;;11.93;;
69363;SDS011;56526;55.406;86.130;2022-08-25T02:51:51;22.95;;;12.32;;
69363;SDS011;56526;55.406;86.130;2022-08-25T02:54:17;20.02;;;12.25;;
69363;SDS011;56526;55.406;86.130;2022-08-25T02:56:44;20.10;;;13.05;;
69363;SDS011;56526;55.406;86.130;2022-08-25T02:59:10;21.65;;;12.55;;
69363;SDS011;56526;55.406;86.130;2022-08-25T03:01:36;24.08;;;11.88;;
69363;SDS011;56526;55.406;86.130;2022-08-25T03:04:02;21.15;;;11.23;;
69363;SDS011;56526;55.406;86.130;2022-08-25T03:06:29;22.38;;;13.40;;
69363;SDS011;56526;55.406;86.130;2022-08-25T03:08:55;23.00;;;12.40;;
69363;SDS011;56526;55.406;86.130;2022-08-25T03:11:22;28.10;;;13.18;;
69363;SDS011;56526;55.406;86.130;2022-08-25T03:13:49;25.80;;;12.85;;
69363;SDS011;56526;55.406;86.130;2022-08-25T03:16:15;22.08;;;11.65;;
69363;SDS011;56526;55.406;86.130;2022-08-25T03:18:42;21.48;;;13.00;;
69363;SDS011;56526;55.406;86.130;2022-08-25T03:21:09;21.75;;;12.40;;
69363;SDS011;56526;55.406;86.130;2022-08-25T03:23:37;24.27;;;13.68;;
69363;SDS011;56526;55.406;86.130;2022-08-25T03:26:05;25.77;;;12.98;;
69363;SDS011;56526;55.406;86.130;2022-08-25T03:28:32;27.55;;;16.98;;
69363;SDS011;56526;55.406;86.130;2022-08-25T03:30:59;37.92;;;20.95;;
69363;SDS011;56526;55.406;86.130;2022-08-25T03:33:26;30.45;;;17.23;;
69363;SDS011;56526;55.406;86.130;2022-08-25T03:35:54;29.40;;;17.50;;
69363;SDS011;56526;55.406;86.130;2022-08-25T03:38:21;31.80;;;20.35;;
69363;SDS011;56526;55.406;86.130;2022-08-25T03:40:48;29.27;;;19.42;;
69363;SDS011;56526;55.406;86.130;2022-08-25T03:43:15;32.65;;;19.95;;
69363;SDS011;56526;55.406;86.130;2022-08-25T03:45:42;43.03;;;25.15;;
69363;SDS011;56526;55.406;86.130;2022-08-25T03:48:09;34.42;;;22.73;;
69363;SDS011;56526;55.406;86.130;2022-08-25T03:50:36;28.17;;;18.77;;
69363;SDS011;56526;55.406;86.130;2022-08-25T03:53:02;18.27;;;12.70;;
69363;SDS011;56526;55.406;86.130;2022-08-25T03:55:29;18.27;;;10.48;;
69363;SDS011;56526;55.406;86.130;2022-08-25T03:57:56;20.00;;;10.65;;
69363;SDS011;56526;55.406;86.130;2022-08-25T04:00:22;20.20;;;10.38;;
69363;SDS011;56526;55.406;86.130;2022-08-25T04:02:48;16.27;;;10.00;;
69363;SDS011;56526;55.406;86.130;2022-08-25T04:05:14;15.80;;;8.75;;
69363;SDS011;56526;55.406;86.130;2022-08-25T04:07:40;15.25;;;9.73;;
69363;SDS011;56526;55.406;86.130;2022-08-25T04:10:08;18.58;;;10.48;;
69363;SDS011;56526;55.406;86.130;2022-08-25T04:12:36;19.38;;;11.27;;
69363;SDS011;56526;55.406;86.130;2022-08-25T04:15:03;19.38;;;10.48;;
69363;SDS011;56526;55.406;86.130;2022-08-25T04:17:31;16.90;;;9.85;;
69363;SDS011;56526;55.406;86.130;2022-08-25T04:19:57;20.30;;;10.85;;
69363;SDS011;56526;55.406;86.130;2022-08-25T04:22:24;18.65;;;10.93;;
69363;SDS011;56526;55.406;86.130;2022-08-25T04:24:50;17.17;;;9.77;;
69363;SDS011;56526;55.406;86.130;2022-08-25T04:27:16;24.08;;;12.27;;
69363;SDS011;56526;55.406;86.130;2022-08-25T04:29:42;20.45;;;12.95;;
69363;SDS011;56526;55.406;86.130;2022-08-25T04:32:08;25.67;;;12.57;;
69363;SDS011;56526;55.406;86.130;2022-08-25T04:34:35;24.58;;;12.60;;
69363;SDS011;56526;55.406;86.130;2022-08-25T04:37:01;19.75;;;11.73;;
69363;SDS011;56526;55.406;86.130;2022-08-25T04:39:29;21.08;;;12.77;;
69363;SDS011;56526;55.406;86.130;2022-08-25T04:41:56;23.35;;;13.55;;
69363;SDS011;56526;55.406;86.130;2022-08-25T04:44:23;24.02;;;12.18;;
69363;SDS011;56526;55.406;86.130;2022-08-25T04:46:49;23.23;;;10.95;;
69363;SDS011;56526;55.406;86.130;2022-08-25T04:49:15;21.67;;;9.93;;
69363;SDS011;56526;55.406;86.130;2022-08-25T04:51:42;16.35;;;7.80;;
69363;SDS011;56526;55.406;86.130;2022-08-25T04:54:09;13.55;;;8.10;;
69363;SDS011;56526;55.406;86.130;2022-08-25T04:56:39;23.77;;;9.40;;
69363;SDS011;56526;55.406;86.130;2022-08-25T04:59:07;17.98;;;9.50;;
69363;SDS011;56526;55.406;86.130;2022-08-25T05:01:39;19.80;;;11.05;;
69363;SDS011;56526;55.406;86.130;2022-08-25T05:04:06;19.25;;;9.57;;
69363;SDS011;56526;55.406;86.130;2022-08-25T05:06:35;10.35;;;5.95;;
69363;SDS011;56526;55.406;86.130;2022-08-25T05:09:02;10.27;;;6.60;;
69363;SDS011;56526;55.406;86.130;2022-08-25T05:11:30;18.08;;;8.82;;
69363;SDS011;56526;55.406;86.130;2022-08-25T05:13:58;12.40;;;7.95;;
69363;SDS011;56526;55.406;86.130;2022-08-25T05:16:27;11.20;;;6.97;;
69363;SDS011;56526;55.406;86.130;2022-08-25T05:18:54;9.95;;;6.88;;
69363;SDS011;56526;55.406;86.130;2022-08-25T05:21:22;9.90;;;6.65;;
69363;SDS011;56526;55.406;86.130;2022-08-25T05:23:55;8.63;;;7.05;;
69363;SDS011;56526;55.406;86.130;2022-08-25T05:26:23;9.98;;;6.90;;
69363;SDS011;56526;55.406;86.130;2022-08-25T05:28:53;15.80;;;6.72;;
69363;SDS011;56526;55.406;86.130;2022-08-25T05:31:20;13.75;;;7.82;;
69363;SDS011;56526;55.406;86.130;2022-08-25T05:33:49;19.40;;;7.70;;
69363;SDS011;56526;55.406;86.130;2022-08-25T05:36:17;24.25;;;11.38;;
69363;SDS011;56526;55.406;86.130;2022-08-25T05:38:45;24.90;;;12.27;;
69363;SDS011;56526;55.406;86.130;2022-08-25T05:41:13;35.78;;;13.23;;
69363;SDS011;56526;55.406;86.130;2022-08-25T05:43:44;32.17;;;13.23;;
69363;SDS011;56526;55.406;86.130;2022-08-25T05:46:12;39.85;;;15.75;;
69363;SDS011;56526;55.406;86.130;2022-08-25T05:48:41;33.45;;;14.88;;
69363;SDS011;56526;55.406;86.130;2022-08-25T05:51:09;20.40;;;10.90;;
69363;SDS011;56526;55.406;86.130;2022-08-25T05:53:37;16.48;;;10.63;;
69363;SDS011;56526;55.406;86.130;2022-08-25T05:56:06;22.80;;;11.63;;
69363;SDS011;56526;55.406;86.130;2022-08-25T05:58:36;18.83;;;11.23;;
69363;SDS011;56526;55.406;86.130;2022-08-25T06:01:02;21.80;;;12.05;;
69363;SDS011;56526;55.406;86.130;2022-08-25T06:03:29;22.73;;;11.57;;
69363;SDS011;56526;55.406;86.130;2022-08-25T06:06:03;22.38;;;11.30;;
69363;SDS011;56526;55.406;86.130;2022-08-25T06:08:31;24.63;;;8.68;;
69363;SDS011;56526;55.406;86.130;2022-08-25T06:10:57;20.10;;;10.23;;
69363;SDS011;56526;55.406;86.130;2022-08-25T06:13:23;18.05;;;8.77;;
69363;SDS011;56526;55.406;86.130;2022-08-25T06:15:55;14.82;;;8.57;;
69363;SDS011;56526;55.406;86.130;2022-08-25T06:18:23;19.67;;;9.25;;
69363;SDS011;56526;55.406;86.130;2022-08-25T06:20:49;20.30;;;7.30;;
69363;SDS011;56526;55.406;86.130;2022-08-25T06:23:16;12.23;;;7.28;;
69363;SDS011;56526;55.406;86.130;2022-08-25T06:25:42;16.92;;;8.80;;
69363;SDS011;56526;55.406;86.130;2022-08-25T06:28:14;14.20;;;8.18;;
69363;SDS011;56526;55.406;86.130;2022-08-25T06:30:41;12.90;;;7.85;;
69363;SDS011;56526;55.406;86.130;2022-08-25T06:33:07;18.52;;;7.75;;
69363;SDS011;56526;55.406;86.130;2022-08-25T06:35:34;16.13;;;7.93;;
69363;SDS011;56526;55.406;86.130;2022-08-25T06:38:00;16.85;;;8.77;;
69363;SDS011;56526;55.406;86.130;2022-08-25T06:40:26;20.83;;;8.70;;
69363;SDS011;56526;55.406;86.130;2022-08-25T06:42:53;17.50;;;7.78;;
69363;SDS011;56526;55.406;86.130;2022-08-25T06:45:19;17.65;;;8.48;;
69363;SDS011;56526;55.406;86.130;2022-08-25T06:47:45;18.23;;;6.43;;
69363;SDS011;56526;55.406;86.130;2022-08-25T06:50:12;7.40;;;4.72;;
69363;SDS011;56526;55.406;86.130;2022-08-25T06:52:39;8.85;;;5.00;;
69363;SDS011;56526;55.406;86.130;2022-08-25T06:55:05;8.32;;;5.60;;
69363;SDS011;56526;55.406;86.130;2022-08-25T06:57:32;12.23;;;5.22;;
69363;SDS011;56526;55.406;86.130;2022-08-25T06:59:58;10.90;;;4.15;;
69363;SDS011;56526;55.406;86.130;2022-08-25T07:02:24;9.73;;;4.72;;
69363;SDS011;56526;55.406;86.130;2022-08-25T07:04:50;5.45;;;4.82;;
69363;SDS011;56526;55.406;86.130;2022-08-25T07:07:17;7.00;;;4.18;;
69363;SDS011;56526;55.406;86.130;2022-08-25T07:09:43;5.88;;;3.90;;
69363;SDS011;56526;55.406;86.130;2022-08-25T07:12:09;4.32;;;2.63;;
69363;SDS011;56526;55.406;86.130;2022-08-25T07:14:36;7.75;;;4.40;;
69363;SDS011;56526;55.406;86.130;2022-08-25T07:17:02;7.15;;;4.20;;
69363;SDS011;56526;55.406;86.130;2022-08-25T07:19:29;7.20;;;3.78;;
69363;SDS011;56526;55.406;86.130;2022-08-25T07:21:55;7.15;;;4.82;;
69363;SDS011;56526;55.406;86.130;2022-08-25T07:24:21;4.85;;;2.78;;
69363;SDS011;56526;55.406;86.130;2022-08-25T07:26:48;8.75;;;4.80;;
69363;SDS011;56526;55.406;86.130;2022-08-25T07:29:17;4.32;;;3.92;;
69363;SDS011;56526;55.406;86.130;2022-08-25T07:31:47;5.03;;;2.50;;
69363;SDS011;56526;55.406;86.130;2022-08-25T07:34:13;9.43;;;5.35;;
69363;SDS011;56526;55.406;86.130;2022-08-25T07:36:40;6.10;;;4.63;;
69363;SDS011;56526;55.406;86.130;2022-08-25T07:39:07;4.95;;;3.53;;
69363;SDS011;56526;55.406;86.130;2022-08-25T07:41:38;5.55;;;4.18;;
69363;SDS011;56526;55.406;86.130;2022-08-25T07:44:06;7.38;;;4.75;;
69363;SDS011;56526;55.406;86.130;2022-08-25T07:46:34;7.90;;;4.13;;
69363;SDS011;56526;55.406;86.130;2022-08-25T07:49:00;7.00;;;4.25;;
69363;SDS011;56526;55.406;86.130;2022-08-25T07:51:27;7.63;;;3.78;;
69363;SDS011;56526;55.406;86.130;2022-08-25T07:53:53;5.55;;;4.03;;
69363;SDS011;56526;55.406;86.130;2022-08-25T07:56:20;4.68;;;2.40;;
69363;SDS011;56526;55.406;86.130;2022-08-25T07:58:46;5.97;;;4.55;;
69363;SDS011;56526;55.406;86.130;2022-08-25T08:01:13;4.30;;;3.88;;
69363;SDS011;56526;55.406;86.130;2022-08-25T08:03:43;4.95;;;4.07;;
69363;SDS011;56526;55.406;86.130;2022-08-25T08:06:11;4.95;;;3.60;;
69363;SDS011;56526;55.406;86.130;2022-08-25T08:08:40;4.80;;;4.47;;
69363;SDS011;56526;55.406;86.130;2022-08-25T08:11:18;5.65;;;3.78;;
69363;SDS011;56526;55.406;86.130;2022-08-25T08:13:54;5.05;;;3.53;;
69363;SDS011;56526;55.406;86.130;2022-08-25T08:16:23;5.10;;;3.75;;
69363;SDS011;56526;55.406;86.130;2022-08-25T08:18:52;3.85;;;3.42;;
69363;SDS011;56526;55.406;86.130;2022-08-25T08:21:23;3.47;;;3.17;;
69363;SDS011;56526;55.406;86.130;2022-08-25T08:23:56;8.80;;;6.03;;
69363;SDS011;56526;55.406;86.130;2022-08-25T08:26:23;4.88;;;4.47;;
69363;SDS011;56526;55.406;86.130;2022-08-25T08:28:51;5.68;;;2.13;;
69363;SDS011;56526;55.406;86.130;2022-08-25T08:31:20;4.97;;;4.05;;
69363;SDS011;56526;55.406;86.130;2022-08-25T08:33:49;5.82;;;4.15;;
69363;SDS011;56526;55.406;86.130;2022-08-25T08:36:16;4.70;;;4.20;;
69363;SDS011;56526;55.406;86.130;2022-08-25T08:38:43;6.78;;;3.38;;
69363;SDS011;56526;55.406;86.130;2022-08-25T08:56:05;4.63;;;3.33;;
69363;SDS011;56526;55.406;86.130;2022-08-25T08:58:49;4.65;;;3.22;;
69363;SDS011;56526;55.406;86.130;2022-08-25T09:01:57;3.72;;;3.42;;
69363;SDS011;56526;55.406;86.130;2022-08-25T09:04:26;5.25;;;3.72;;
69363;SDS011;56526;55.406;86.130;2022-08-25T09:07:09;6.53;;;3.38;;
69363;SDS011;56526;55.406;86.130;2022-08-25T09:09:41;7.63;;;3.35;;
69363;SDS011;56526;55.406;86.130;2022-08-25T09:27:29;3.45;;;2.75;;
69363;SDS011;56526;55.406;86.130;2022-08-25T09:30:09;5.75;;;3.42;;
69363;SDS011;56526;55.406;86.130;2022-08-25T09:32:46;5.28;;;3.63;;
69363;SDS011;56526;55.406;86.130;2022-08-25T09:35:23;4.22;;;3.58;;
69363;SDS011;56526;55.406;86.130;2022-08-25T09:37:57;4.18;;;3.78;;
69363;SDS011;56526;55.406;86.130;2022-08-25T09:43:03;5.68;;;3.83;;
69363;SDS011;56526;55.406;86.130;2022-08-25T09:45:49;6.00;;;4.38;;
69363;SDS011;56526;55.406;86.130;2022-08-25T09:49:11;5.15;;;3.40;;
69363;SDS011;56526;55.406;86.130;2022-08-25T09:51:27;5.80;;;4.57;;
69363;SDS011;56526;55.406;86.130;2022-08-25T09:54:15;7.30;;;4.03;;
69363;SDS011;56526;55.406;86.130;2022-08-25T09:56:52;4.47;;;4.00;;
69363;SDS011;56526;55.406;86.130;2022-08-25T09:59:22;4.18;;;3.30;;
69363;SDS011;56526;55.406;86.130;2022-08-25T10:01:58;6.80;;;4.05;;
69363;SDS011;56526;55.406;86.130;2022-08-25T10:04:33;6.25;;;3.78;;
69363;SDS011;56526;55.406;86.130;2022-08-25T10:07:04;4.00;;;3.30;;
69363;SDS011;56526;55.406;86.130;2022-08-25T10:09:50;2.67;;;1.77;;
69363;SDS011;56526;55.406;86.130;2022-08-25T10:12:38;4.40;;;3.75;;
69363;SDS011;56526;55.406;86.130;2022-08-25T10:15:17;5.68;;;3.67;;
69363;SDS011;56526;55.406;86.130;2022-08-25T10:21:08;4.25;;;3.67;;
69363;SDS011;56526;55.406;86.130;2022-08-25T10:23:40;6.07;;;3.45;;
69363;SDS011;56526;55.406;86.130;2022-08-25T10:35:02;3.95;;;3.42;;
69363;SDS011;56526;55.406;86.130;2022-08-25T10:38:03;8.50;;;4.35;;
69363;SDS011;56526;55.406;86.130;2022-08-25T10:56:22;6.30;;;3.65;;
69363;SDS011;56526;55.406;86.130;2022-08-25T10:59:02;4.70;;;4.30;;
69363;SDS011;56526;55.406;86.130;2022-08-25T11:01:45;5.18;;;3.70;;
69363;SDS011;56526;55.406;86.130;2022-08-25T11:04:20;5.82;;;4.03;;
69363;SDS011;56526;55.406;86.130;2022-08-25T11:07:26;4.82;;;3.58;;
69363;SDS011;56526;55.406;86.130;2022-08-25T11:10:22;4.53;;;4.15;;
69363;SDS011;56526;55.406;86.130;2022-08-25T11:13:05;4.13;;;3.35;;
69363;SDS011;56526;55.406;86.130;2022-08-25T11:19:02;4.25;;;3.50;;
69363;SDS011;56526;55.406;86.130;2022-08-25T11:24:51;3.80;;;3.08;;
69363;SDS011;56526;55.406;86.130;2022-08-25T11:30:50;6.03;;;4.05;;
69363;SDS011;56526;55.406;86.130;2022-08-25T11:33:17;4.85;;;2.13;;
69363;SDS011;56526;55.406;86.130;2022-08-25T11:35:49;5.40;;;4.20;;
69363;SDS011;56526;55.406;86.130;2022-08-25T11:50:32;12.10;;;5.20;;
69363;SDS011;56526;55.406;86.130;2022-08-25T11:55:54;6.57;;;3.95;;
69363;SDS011;56526;55.406;86.130;2022-08-25T12:04:52;5.18;;;4.43;;
69363;SDS011;56526;55.406;86.130;2022-08-25T12:10:06;7.38;;;4.72;;
69363;SDS011;56526;55.406;86.130;2022-08-25T12:12:36;9.50;;;5.68;;
69363;SDS011;56526;55.406;86.130;2022-08-25T12:23:28;6.88;;;5.43;;
69363;SDS011;56526;55.406;86.130;2022-08-25T12:28:40;6.55;;;5.22;;
69363;SDS011;56526;55.406;86.130;2022-08-25T12:34:43;11.60;;;6.82;;
69363;SDS011;56526;55.406;86.130;2022-08-25T12:37:33;12.07;;;7.32;;
69363;SDS011;56526;55.406;86.130;2022-08-25T12:40:00;15.68;;;8.05;;
69363;SDS011;56526;55.406;86.130;2022-08-25T12:42:40;11.57;;;7.07;;
69363;SDS011;56526;55.406;86.130;2022-08-25T12:47:47;12.27;;;8.18;;
69363;SDS011;56526;55.406;86.130;2022-08-25T12:53:16;18.60;;;8.90;;
69363;SDS011;56526;55.406;86.130;2022-08-25T12:56:02;15.18;;;7.65;;
69363;SDS011;56526;55.406;86.130;2022-08-25T12:58:45;13.52;;;8.43;;
69363;SDS011;56526;55.406;86.130;2022-08-25T13:01:35;14.52;;;10.38;;
69363;SDS011;56526;55.406;86.130;2022-08-25T13:05:10;11.20;;;8.35;;
69363;SDS011;56526;55.406;86.130;2022-08-25T13:14:04;12.13;;;7.35;;
69363;SDS011;56526;55.406;86.130;2022-08-25T13:16:54;10.02;;;6.68;;
69363;SDS011;56526;55.406;86.130;2022-08-25T13:19:23;9.43;;;6.10;;
69363;SDS011;56526;55.406;86.130;2022-08-25T13:21:51;12.45;;;7.30;;
69363;SDS011;56526;55.406;86.130;2022-08-25T13:24:30;11.35;;;6.25;;
69363;SDS011;56526;55.406;86.130;2022-08-25T13:27:07;13.05;;;7.95;;
69363;SDS011;56526;55.406;86.130;2022-08-25T13:29:51;9.45;;;6.38;;
69363;SDS011;56526;55.406;86.130;2022-08-25T13:32:29;6.63;;;5.25;;
69363;SDS011;56526;55.406;86.130;2022-08-25T13:35:18;10.70;;;5.13;;
69363;SDS011;56526;55.406;86.130;2022-08-25T13:37:49;8.07;;;5.53;;
69363;SDS011;56526;55.406;86.130;2022-08-25T13:42:55;7.97;;;4.07;;
69363;SDS011;56526;55.406;86.130;2022-08-25T13:45:26;7.70;;;4.63;;
69363;SDS011;56526;55.406;86.130;2022-08-25T13:47:56;9.60;;;6.32;;
69363;SDS011;56526;55.406;86.130;2022-08-25T13:52:57;11.70;;;7.55;;
69363;SDS011;56526;55.406;86.130;2022-08-25T13:55:54;20.27;;;9.65;;
69363;SDS011;56526;55.406;86.130;2022-08-25T13:58:25;20.27;;;10.52;;
69363;SDS011;56526;55.406;86.130;2022-08-25T14:03:46;19.38;;;9.60;;
69363;SDS011;56526;55.406;86.130;2022-08-25T14:08:40;15.60;;;9.43;;
69363;SDS011;56526;55.406;86.130;2022-08-25T14:14:06;15.65;;;8.02;;
69363;SDS011;56526;55.406;86.130;2022-08-25T14:16:37;14.57;;;8.70;;
69363;SDS011;56526;55.406;86.130;2022-08-25T14:19:13;12.50;;;8.88;;
69363;SDS011;56526;55.406;86.130;2022-08-25T14:21:42;14.88;;;9.48;;
69363;SDS011;56526;55.406;86.130;2022-08-25T14:24:09;13.15;;;8.55;;
69363;SDS011;56526;55.406;86.130;2022-08-25T14:26:43;15.63;;;9.85;;
69363;SDS011;56526;55.406;86.130;2022-08-25T14:29:10;19.60;;;8.70;;
69363;SDS011;56526;55.406;86.130;2022-08-25T14:31:41;17.20;;;9.43;;
69363;SDS011;56526;55.406;86.130;2022-08-25T14:34:13;11.80;;;7.53;;
69363;SDS011;56526;55.406;86.130;2022-08-25T14:36:46;21.73;;;11.27;;
69363;SDS011;56526;55.406;86.130;2022-08-25T14:39:15;14.13;;;6.78;;
69363;SDS011;56526;55.406;86.130;2022-08-25T14:41:43;14.90;;;8.10;;
69363;SDS011;56526;55.406;86.130;2022-08-25T14:44:09;15.23;;;7.90;;
69363;SDS011;56526;55.406;86.130;2022-08-25T14:46:37;12.98;;;7.93;;
69363;SDS011;56526;55.406;86.130;2022-08-25T14:49:16;16.58;;;7.88;;
69363;SDS011;56526;55.406;86.130;2022-08-25T14:51:46;17.75;;;6.28;;
69363;SDS011;56526;55.406;86.130;2022-08-25T14:54:13;11.43;;;6.20;;
69363;SDS011;56526;55.406;86.130;2022-08-25T14:56:40;16.33;;;6.35;;
69363;SDS011;56526;55.406;86.130;2022-08-25T14:59:20;8.25;;;6.07;;
69363;SDS011;56526;55.406;86.130;2022-08-25T15:01:46;15.07;;;6.47;;
69363;SDS011;56526;55.406;86.130;2022-08-25T15:04:14;13.32;;;6.80;;
69363;SDS011;56526;55.406;86.130;2022-08-25T15:06:44;16.55;;;7.22;;
69363;SDS011;56526;55.406;86.130;2022-08-25T15:09:14;11.30;;;6.15;;
69363;SDS011;56526;55.406;86.130;2022-08-25T15:11:42;19.77;;;6.65;;
69363;SDS011;56526;55.406;86.130;2022-08-25T15:14:15;32.42;;;8.02;;
69363;SDS011;56526;55.406;86.130;2022-08-25T15:16:48;13.07;;;7.88;;
69363;SDS011;56526;55.406;86.130;2022-08-25T15:19:19;11.75;;;6.25;;
69363;SDS011;56526;55.406;86.130;2022-08-25T15:21:48;13.43;;;8.23;;
69363;SDS011;56526;55.406;86.130;2022-08-25T15:24:16;15.20;;;6.60;;
69363;SDS011;56526;55.406;86.130;2022-08-25T15:26:48;11.57;;;7.43;;
69363;SDS011;56526;55.406;86.130;2022-08-25T15:29:19;15.80;;;7.78;;
69363;SDS011;56526;55.406;86.130;2022-08-25T15:31:46;11.98;;;7.20;;
69363;SDS011;56526;55.406;86.130;2022-08-25T15:34:12;12.70;;;7.82;;
69363;SDS011;56526;55.406;86.130;2022-08-25T15:36:40;15.68;;;7.55;;
69363;SDS011;56526;55.406;86.130;2022-08-25T15:39:07;14.10;;;7.55;;
69363;SDS011;56526;55.406;86.130;2022-08-25T15:41:36;12.60;;;6.93;;
69363;SDS011;56526;55.406;86.130;2022-08-25T15:44:06;9.98;;;8.98;;
69363;SDS011;56526;55.406;86.130;2022-08-25T15:46:33;10.63;;;8.35;;
69363;SDS011;56526;55.406;86.130;2022-08-25T15:49:01;9.52;;;7.45;;
69363;SDS011;56526;55.406;86.130;2022-08-25T15:51:28;12.05;;;7.32;;
69363;SDS011;56526;55.406;86.130;2022-08-25T15:53:55;11.48;;;6.55;;
69363;SDS011;56526;55.406;86.130;2022-08-25T15:56:22;10.07;;;6.60;;
69363;SDS011;56526;55.406;86.130;2022-08-25T15:58:49;17.65;;;6.63;;
69363;SDS011;56526;55.406;86.130;2022-08-25T16:01:18;23.95;;;6.97;;
69363;SDS011;56526;55.406;86.130;2022-08-25T16:03:49;15.93;;;5.97;;
69363;SDS011;56526;55.406;86.130;2022-08-25T16:06:16;11.73;;;5.97;;
69363;SDS011;56526;55.406;86.130;2022-08-25T16:08:43;14.63;;;6.60;;
69363;SDS011;56526;55.406;86.130;2022-08-25T16:11:16;16.73;;;7.43;;
69363;SDS011;56526;55.406;86.130;2022-08-25T16:13:56;15.77;;;4.20;;
69363;SDS011;56526;55.406;86.130;2022-08-25T16:16:24;13.43;;;5.72;;
69363;SDS011;56526;55.406;86.130;2022-08-25T16:18:53;20.25;;;6.25;;
69363;SDS011;56526;55.406;86.130;2022-08-25T16:21:21;14.20;;;6.18;;
69363;SDS011;56526;55.406;86.130;2022-08-25T16:23:53;11.10;;;5.90;;
69363;SDS011;56526;55.406;86.130;2022-08-25T16:26:24;20.48;;;6.28;;
69363;SDS011;56526;55.406;86.130;2022-08-25T16:28:51;13.98;;;5.60;;
69363;SDS011;56526;55.406;86.130;2022-08-25T16:31:18;9.73;;;4.40;;
69363;SDS011;56526;55.406;86.130;2022-08-25T16:33:46;17.77;;;5.88;;
69363;SDS011;56526;55.406;86.130;2022-08-25T16:36:14;11.30;;;7.57;;
69363;SDS011;56526;55.406;86.130;2022-08-25T16:41:11;20.05;;;6.93;;
69363;SDS011;56526;55.406;86.130;2022-08-25T16:43:42;7.60;;;5.30;;
69363;SDS011;56526;55.406;86.130;2022-08-25T16:46:10;11.73;;;6.25;;
69363;SDS011;56526;55.406;86.130;2022-08-25T16:48:38;12.35;;;6.18;;
69363;SDS011;56526;55.406;86.130;2022-08-25T16:51:13;13.05;;;7.25;;
69363;SDS011;56526;55.406;86.130;2022-08-25T16:53:43;10.70;;;5.10;;
69363;SDS011;56526;55.406;86.130;2022-08-25T16:56:10;11.70;;;4.97;;
69363;SDS011;56526;55.406;86.130;2022-08-25T16:58:37;8.98;;;5.28;;
69363;SDS011;56526;55.406;86.130;2022-08-25T17:01:07;14.35;;;7.03;;